Flight Track Log - Related Links

Times and Time Zones

All times are in EST time to prevent confusion due to time zone crossing. See the EJA922 flight status page for this flight to view local times or setup timezone preferences in your user account.


Time Position Orientation Groundspeed Altitude Reporting Facility
EST Latitude Longitude Course Direction KTS MPH feet Rate Location/Type
Fri 02:06:03 PM 38.8558 -104.7153 123° Southeast 199 229 9,100  Level Denver Center
Fri 02:07:05 PM 38.8814 -104.6578 60° Northeast 245 282 12,300 2,952 Climbing Denver Center
Fri 02:08:07 PM 38.8331 -104.5433 118° Southeast 303 349 15,200 2,516 Climbing Denver Center
Fri 02:09:09 PM 38.7858 -104.4286 118° Southeast 354 407 17,500 2,323 Climbing Denver Center
Fri 02:10:11 PM 38.7264 -104.2886 119° Southeast 388 447 20,000 2,129 Climbing Denver Center
Fri 02:11:00 PM 38.5320 -103.8473 123° Southeast  Level FlightAware Approximate
Fri 02:11:13 PM 38.6728 -104.1639 119° Southeast 407 468 21,900  Level Denver Center
Fri 02:12:15 PM 38.6183 -104.0311 118° Southeast 430 495 23,800 2,032 Climbing Denver Center
Fri 02:13:17 PM 38.5517 -103.8769 119° Southeast 442 509 26,100 2,177 Climbing Denver Center
Fri 02:14:19 PM 38.5089 -103.7053 108° East 454 522 28,300 1,403 Climbing Denver Center
Fri 02:15:21 PM 38.4800 -103.5497 103° East 466 536 29,000 435 Climbing Denver Center
Fri 02:16:23 PM 38.4458 -103.3692 104° East 505 581 29,200 1,161 Climbing Denver Center
Fri 02:17:25 PM 38.4100 -103.1728 103° East 510 587 31,400 1,984 Climbing Denver Center
Fri 02:18:27 PM 38.3786 -103.0081 104° East 503 579 33,300 1,548 Climbing Denver Center
Fri 02:19:29 PM 38.3417 -102.8139 104° East 506 582 34,600 816 Climbing Denver Center
Fri 02:20:32 PM 38.3086 -102.6450 104° East 513 590 35,000 480 Climbing Denver Center
Fri 02:21:34 PM 38.2739 -102.4692 104° East 532 612 35,600 1,065 Climbing Denver Center
Fri 02:22:36 PM 38.2353 -102.2700 104° East 521 600 37,200 1,403 Climbing Denver Center
Fri 02:23:38 PM 38.2022 -102.1022 104° East 512 589 38,500 1,161 Climbing Denver Center
Fri 02:24:40 PM 38.1619 -101.9072 105° East 513 590 39,600 926 Climbing Denver Center
Fri 02:25:54 PM 38.1292 -101.7378 104° East 516 594 40,600 792 Climbing Denver Center
Fri 02:26:26 PM 38.1000 -101.5969 105° East 515 593 41,000 261 Climbing Kansas City Center
Fri 02:27:26 PM 38.0650 -101.4233 104° East 525 604 41,000  Level Kansas City Center
Fri 02:28:30 PM 38.0225 -101.2164 105° East 537 618 41,000  Level Kansas City Center
Fri 02:29:31 PM 37.9842 -101.0364 105° East 546 628 41,000  Level Kansas City Center
Fri 02:30:32 PM 37.9458 -100.8533 105° East 553 636 41,000  Level Kansas City Center
Fri 02:31:36 PM 37.8942 -100.6406 107° East 557 641 41,000  Level Kansas City Center
Fri 02:32:37 PM 37.8386 -100.4650 112° Southeast 556 640 41,000  Level Kansas City Center
Fri 02:33:40 PM 37.7744 -100.2617 112° Southeast 555 639 41,000  Level Kansas City Center
Fri 02:34:42 PM 37.7194 -100.0861 112° Southeast 558 642 41,000  Level Kansas City Center
Fri 02:35:44 PM 37.6547 -99.8819 112° Southeast 561 646 41,000  Level Kansas City Center
Fri 02:36:45 PM 37.5994 -99.7072 112° Southeast 560 644 41,000  Level Kansas City Center
Fri 02:37:48 PM 37.5431 -99.5322 112° Southeast 562 647 41,000  Level Kansas City Center
Fri 02:38:50 PM 37.4853 -99.3569 113° Southeast 564 649 41,000  Level Kansas City Center
Fri 02:39:53 PM 37.4156 -99.1367 112° Southeast 565 650 41,000  Level Kansas City Center
Fri 02:40:54 PM 37.3550 -98.9550 113° Southeast 565 650 41,000  Level Kansas City Center
Fri 02:41:57 PM 37.2944 -98.7733 113° Southeast 566 651 41,000  Level Kansas City Center
Fri 02:42:58 PM 37.2347 -98.5944 113° Southeast 563 648 41,000  Level Kansas City Center
Fri 02:44:01 PM 37.1733 -98.4133 113° Southeast 565 650 41,000  Level Kansas City Center
Fri 02:45:02 PM 37.1008 -98.1972 113° Southeast 565 650 41,000  Level Kansas City Center
Fri 02:46:03 PM 37.0406 -98.0186 113° Southeast 564 649 41,000  Level Kansas City Center
Fri 02:47:07 PM 36.9786 -97.8400 113° Southeast 562 647 41,000  Level Kansas City Center
Fri 02:48:08 PM 36.9183 -97.6622 113° Southeast 560 644 41,000  Level Kansas City Center
Fri 02:49:09 PM 36.8564 -97.4842 113° Southeast 560 644 41,000  Level Kansas City Center
Fri 02:50:13 PM 36.7972 -97.3008 112° Southeast 560 644 41,000  Level Kansas City Center
Fri 02:51:13 PM 36.7344 -97.0761 109° East 564 649 41,000  Level Kansas City Center
Fri 02:52:15 PM 36.7058 -96.9017 102° East 560 644 41,000  Level Kansas City Center
Fri 02:53:18 PM 36.6769 -96.7042 100° East 575 662 41,000  Level Kansas City Center
Fri 02:54:19 PM 36.6461 -96.5064 101° East 579 666 41,000  Level Kansas City Center
Fri 02:55:22 PM 36.6092 -96.2697 101° East 580 667 41,000  Level Kansas City Center
Fri 02:56:23 PM 36.5778 -96.0731 101° East 579 666 41,000  Level Kansas City Center
Fri 02:57:27 PM 36.5453 -95.8772 102° East 577 664 41,000  Level Kansas City Center
Fri 02:58:27 PM 36.5108 -95.6678 102° East 577 664 41,000  Level Kansas City Center
Fri 02:59:31 PM 36.4794 -95.4733 101° East 576 663 41,000  Level Kansas City Center
Fri 03:00:32 PM 36.4469 -95.2767 102° East 578 665 41,000  Level Kansas City Center
Fri 03:01:33 PM 36.4125 -95.0764 102° East 579 666 41,000  Level Kansas City Center
Fri 03:02:37 PM 36.3775 -94.8775 102° East 584 672 41,000  Level Kansas City Center
Fri 03:03:39 PM 36.3431 -94.6803 102° East 584 672 41,000  Level Kansas City Center
Fri 03:04:39 PM 36.3081 -94.4822 102° East 585 673 41,000  Level Kansas City Center
Fri 03:05:42 PM 36.2661 -94.2461 102° East 584 672 41,000  Level Kansas City Center
Fri 03:06:43 PM 36.2322 -94.0761 104° East 583 671 41,000  Level Kansas City Center
Fri 03:07:44 PM 36.1786 -93.8875 109° East 582 670 41,000  Level Kansas City Center
Fri 03:08:52 PM 36.1147 -93.6589 109° East 583 671 41,000  Level Memphis Center
Fri 03:09:55 PM 36.0619 -93.4681 109° East 584 672 41,000  Level Memphis Center
Fri 03:10:57 PM 36.0081 -93.2775 109° East 586 674 41,000  Level Memphis Center
Fri 03:11:59 PM 35.9433 -93.0469 109° East 588 677 41,000  Level Memphis Center
Fri 03:13:01 PM 35.8886 -92.8547 109° East 589 678 41,000  Level Memphis Center
Fri 03:14:03 PM 35.8297 -92.6606 110° East 597 687 41,000  Level Memphis Center
Fri 03:15:05 PM 35.7725 -92.4664 110° East 601 692 41,000  Level Memphis Center
Fri 03:16:07 PM 35.7169 -92.2772 110° East 591 680 41,000  Level Memphis Center
Fri 03:17:09 PM 35.6628 -92.0856 109° East 590 679 41,000  Level Memphis Center
Fri 03:18:11 PM 35.6053 -91.8942 110° East 594 684 41,000  Level Memphis Center
Fri 03:19:13 PM 35.5475 -91.7022 110° East 598 688 41,000  Level Memphis Center
Fri 03:20:15 PM 35.4794 -91.4719 110° East 599 689 41,000  Level Memphis Center
Fri 03:21:17 PM 35.4206 -91.2806 111° Southeast 600 690 41,000  Level Memphis Center
Fri 03:22:19 PM 35.3611 -91.0892 111° Southeast 600 690 41,000  Level Memphis Center
Fri 03:23:21 PM 35.3017 -90.8958 111° Southeast 600 690 41,000  Level Memphis Center
Fri 03:24:24 PM 35.2414 -90.7017 111° Southeast 602 693 41,000  Level Memphis Center
Fri 03:25:26 PM 35.1819 -90.5081 111° Southeast 604 695 41,000  Level Memphis Center
Fri 03:26:28 PM 35.1100 -90.2811 111° Southeast 607 699 41,000  Level Memphis Center
Fri 03:27:30 PM 35.0486 -90.0886 111° Southeast 605 696 41,000  Level Memphis Center
Fri 03:28:32 PM 34.9814 -89.8989 113° Southeast 601 692 41,000  Level Memphis Center
Fri 03:29:34 PM 34.9106 -89.7333 118° Southeast 602 693 41,000  Level Memphis Center
Fri 03:30:36 PM 34.8211 -89.5217 117° Southeast 601 692 41,000  Level Memphis Center
Fri 03:31:38 PM 34.7436 -89.3414 118° Southeast 597 687 41,000  Level Memphis Center
Fri 03:32:40 PM 34.6658 -89.1581 117° Southeast 601 692 41,000  Level Memphis Center
Fri 03:33:42 PM 34.5883 -88.9767 117° Southeast 601 692 41,000  Level Memphis Center
Fri 03:34:44 PM 34.5014 -88.7731 117° Southeast 603 694 41,000  Level Memphis Center
Fri 03:35:47 PM 34.4244 -88.5942 117° Southeast 603 694 41,000  Level Memphis Center
Fri 03:36:49 PM 34.3461 -88.4164 118° Southeast 603 694 41,000  Level Memphis Center
Fri 03:37:51 PM 34.2683 -88.2381 118° Southeast 603 694 41,000  Level Memphis Center
Fri 03:38:53 PM 34.1908 -88.0606 118° Southeast 604 695 41,000  Level Memphis Center
Fri 03:39:55 PM 34.1006 -87.8583 118° Southeast 606 697 41,000  Level Memphis Center
Fri 03:40:57 PM 34.0164 -87.6722 119° Southeast 605 696 41,000  Level Memphis Center
Fri 03:41:59 PM 33.9383 -87.4944 118° Southeast 607 699 41,000  Level Memphis Center
Fri 03:43:01 PM 33.8597 -87.3181 118° Southeast 605 696 41,000  Level Memphis Center
Fri 03:44:03 PM 33.7803 -87.1428 119° Southeast 602 693 41,000  Level Memphis Center
Fri 03:45:05 PM 33.6842 -86.9328 119° Southeast 601 692 41,000  Level Memphis Center
Fri 03:46:04 PM 33.5800 -86.7817 130° Southeast 595 685 41,000  Level Atlanta Center
Fri 03:47:04 PM 33.4725 -86.6411 132° Southeast 578 665 41,000  Level Atlanta Center
Fri 03:48:04 PM 33.3647 -86.4986 132° Southeast 573 659 41,000  Level Atlanta Center
Fri 03:49:04 PM 33.2672 -86.3692 132° Southeast 566 651 41,000  Level Atlanta Center
Fri 03:50:04 PM 33.1569 -86.2322 134° Southeast 571 657 41,000  Level Atlanta Center
Fri 03:51:04 PM 33.0489 -86.0883 132° Southeast 571 657 41,000  Level Atlanta Center
Fri 03:52:04 PM 32.9261 -85.9319 133° Southeast 577 664 41,000  Level Atlanta Center
Fri 03:53:04 PM 32.8153 -85.7911 133° Southeast 582 670 41,000  Level Atlanta Center
Fri 03:54:04 PM 32.7047 -85.6483 133° Southeast 582 670 41,000  Level Atlanta Center
Fri 03:55:04 PM 32.5958 -85.5083 133° Southeast 577 664 41,000  Level Atlanta Center
Fri 03:56:04 PM 32.4847 -85.3686 133° Southeast 583 671 41,000  Level Atlanta Center
Fri 03:57:04 PM 32.3692 -85.2292 134° Southeast 583 671 41,000  Level Atlanta Center
Fri 03:58:04 PM 32.2597 -85.0878 132° Southeast 583 671 41,000  Level Atlanta Center
Fri 04:00:28 PM 31.9811 -84.7883 138° Southeast 575 662 41,000  Level Jacksonville Center
Fri 04:01:28 PM 31.8383 -84.7097 155° Southeast 558 642 41,000  Level Jacksonville Center
Fri 04:02:28 PM 31.6953 -84.6358 156° South 553 636 41,000  Level Jacksonville Center
Fri 04:03:28 PM 31.5542 -84.5625 156° South 553 636 41,000  Level Jacksonville Center
Fri 04:04:28 PM 31.4111 -84.4869 156° South 558 642 41,000  Level Jacksonville Center
Fri 04:05:28 PM 31.2658 -84.4142 157° South 558 642 41,000  Level Jacksonville Center
Fri 04:06:28 PM 31.1228 -84.3389 156° South 558 642 41,000  Level Jacksonville Center
Fri 04:07:28 PM 30.9794 -84.2617 155° Southeast 558 642 41,000  Level Jacksonville Center
Fri 04:08:28 PM 30.8342 -84.1869 156° South 558 642 41,000  Level Jacksonville Center
Fri 04:09:28 PM 30.6908 -84.1125 156° South 558 642 41,000  Level Jacksonville Center
Fri 04:10:28 PM 30.5744 -84.0556 157° South 558 642 41,000  Level Jacksonville Center
Fri 04:11:28 PM 30.4081 -83.9667 155° Southeast 552 635 41,000  Level Jacksonville Center
Fri 04:12:28 PM 30.2625 -83.8931 156° South 560 644 41,000  Level Jacksonville Center
Fri 04:13:28 PM 30.1192 -83.8194 156° South 560 644 41,000  Level Jacksonville Center
Fri 04:14:28 PM 29.9756 -83.7486 157° South 560 644 41,000  Level Jacksonville Center
Fri 04:15:28 PM 29.8319 -83.6756 156° South 560 644 41,000  Level Jacksonville Center
Fri 04:16:28 PM 29.7008 -83.6100 157° South 560 644 41,000  Level Jacksonville Center
Fri 04:17:28 PM 29.5572 -83.5397 157° South 560 644 41,000  Level Jacksonville Center
Fri 04:18:28 PM 29.4133 -83.4647 156° South 560 644 41,000 -50 Level Jacksonville Center
Fri 04:19:28 PM 29.2697 -83.3925 156° South 560 644 40,900  Descending Jacksonville Center
Fri 04:20:28 PM 29.1258 -83.3206 156° South 560 644 41,000 50 Climbing Jacksonville Center
Fri 04:21:28 PM 28.9842 -83.2511 157° South 555 639 41,000  Level Jacksonville Center
Fri 04:22:28 PM 28.8403 -83.1794 156° South 555 639 41,000  Level Jacksonville Center
Fri 04:23:28 PM 28.6964 -83.1081 156° South 555 639 41,000  Level Jacksonville Center
Fri 04:24:28 PM 28.5525 -83.0367 156° South 560 644 41,000  Level Jacksonville Center
Fri 04:25:28 PM 28.4086 -82.9681 157° South 560 644 41,000  Level Jacksonville Center
Fri 04:27:11 PM 28.1447 -82.8389 157° South 570 656 41,000  Level Miami Center
Fri 04:28:11 PM 28.0017 -82.7678 156° South 570 656 41,000  Level Miami Center
Fri 04:29:11 PM 27.8539 -82.7086 161° South 570 656 41,000  Level Miami Center
Fri 04:30:11 PM 27.7083 -82.6494 160° South 561 646 41,000  Level Miami Center
Fri 04:31:11 PM 27.5603 -82.5950 162° South 555 639 41,000  Level Miami Center
Fri 04:32:11 PM 27.4142 -82.5386 161° South 555 639 41,000  Level Miami Center
Fri 04:33:11 PM 27.2847 -82.4903 162° South 549 632 41,000 -500 Level Miami Center
Fri 04:34:11 PM 27.1264 -82.4336 162° South 549 632 40,000 -1,200 Descending Miami Center
Fri 04:35:11 PM 26.9781 -82.3800 162° South 554 638 38,600 -1,400 Descending Miami Center
Fri 04:36:11 PM 26.8403 -82.3269 161° South 564 649 37,200 -800 Descending Miami Center
Fri 04:37:11 PM 26.6897 -82.2758 163° South 570 656 37,000 -600 Descending Miami Center
Fri 04:38:11 PM 26.5486 -82.1972 154° Southeast 570 656 36,000 -1,900 Descending Miami Center
Fri 04:39:11 PM 26.4319 -82.0739 137° Southeast 570 656 33,200 -2,900 Descending Miami Center
Fri 04:40:11 PM 26.3156 -81.9481 136° Southeast 564 649 30,200 -3,100 Descending Miami Center
Fri 04:41:11 PM 26.1947 -81.8133 135° Southeast 569 655 27,000 -3,200 Descending Miami Center
Fri 04:42:11 PM 26.1267 -81.6672 117° Southeast 535 616 23,800 -3,000 Descending Miami Center
Fri 04:43:11 PM 26.0811 -81.5267 110° East 504 580 21,000 -2,750 Descending Miami Center
Fri 04:44:11 PM 26.0353 -81.3886 110° East 490 564 18,300 -3,000 Descending Miami Center
Fri 04:45:11 PM 25.9911 -81.2619 111° Southeast 460 529 15,000 -3,450 Descending Miami Center
Fri 04:46:11 PM 25.9528 -81.1428 110° East 433 498 11,400 -3,061 Descending Miami Center
Fri 04:46:49 PM 25.9236 -81.0725 115° Southeast 370 426 10,000 -1,400 Descending Miami Center
Fri 04:47:11 PM 25.9142 -81.0375 107° East 395 455 10,000  Level Miami Center
Fri 04:47:32 PM 25.9025 -81.0094 115° Southeast 295 339 10,000  Level Miami Center
Fri 04:48:11 PM 25.8853 -80.9533 109° East 337 388 10,000  Level Miami Center
Fri 04:48:33 PM 25.8733 -80.9253 115° Southeast 286 329 10,000  Level Miami Center
Fri 04:49:11 PM 25.8583 -80.8717 107° East 294 338 10,000 -871 Level Miami Center
Fri 04:49:35 PM 25.8569 -80.8394 93° East 283 326 9,100 -2,100 Descending Miami Center
Fri 04:50:11 PM 25.8628 -80.7819 84° East 274 315 7,900 -1,770 Descending Miami Center
Fri 04:50:36 PM 25.8656 -80.7497 85° East 282 325 7,300 -900 Descending Miami Center
Fri 04:51:11 PM 25.8711 -80.7036 82° East 269 310 7,000 -295 Descending Miami Center
Fri 04:51:37 PM 25.8717 -80.6783 89° East 207 238 7,000 -700 Level Miami Center
Fri 04:52:11 PM 25.8792 -80.6369 79° East 239 275 6,300 -1,279 Descending Miami Center
Fri 04:52:38 PM 25.8714 -80.6136 110° East 199 229 5,700 -1,300 Descending Miami Center
Fri 04:53:11 PM 25.8639 -80.5811 104° East 208 239 5,000 -1,161 Descending Miami Center
Fri 04:53:40 PM 25.8478 -80.5575 127° Southeast 199 229 4,500 -800 Descending Miami Center
Fri 04:54:11 PM 25.8422 -80.5272 102° East 194 223 4,200 -885 Descending Miami Center
Fri 04:54:41 PM 25.8281 -80.5061 127° Southeast 167 192 3,600 -1,200 Descending Miami Center
Fri 04:55:11 PM 25.8203 -80.4806 109° East 183 211 3,000 -590 Descending Miami Center
Fri 04:55:42 PM 25.8083 -80.4594 122° Southeast 164 189 3,000 -400 Level Miami Center
Fri 04:56:11 PM 25.8028 -80.4361 105° East 170 196 2,600 -1,065 Descending Miami Center
Fri 04:56:44 PM 25.7969 -80.4175 109° East 129 148 1,900 -830 Descending Miami Center
Fri 04:57:45 PM 25.7956 -80.3806 92° East 118 136 1,300 -590 Descending Miami Center
Fri 04:58:46 PM 25.7986 -80.3414 85° East 121 139 700 -590 Descending Miami Center
Fri 05:00:00 PM 25.7954 -80.2901 20° North  Level Estimated

Login

Don't have an account? Register now (free) for customized features, flight alerts, and more!